sensor_id;sensor_type;location;lat;lon;timestamp;P1;durP1;ratioP1;P2;durP2;ratioP2
10565;SDS011;5331;48.148;16.326;2022-09-30T00:01:22;3.70;;;3.13;;
10565;SDS011;5331;48.148;16.326;2022-09-30T00:03:50;3.25;;;2.95;;
10565;SDS011;5331;48.148;16.326;2022-09-30T00:06:19;3.20;;;3.00;;
10565;SDS011;5331;48.148;16.326;2022-09-30T00:08:46;2.83;;;2.63;;
10565;SDS011;5331;48.148;16.326;2022-09-30T00:11:13;3.75;;;3.20;;
10565;SDS011;5331;48.148;16.326;2022-09-30T00:13:42;3.35;;;3.13;;
10565;SDS011;5331;48.148;16.326;2022-09-30T00:16:10;3.08;;;2.80;;
10565;SDS011;5331;48.148;16.326;2022-09-30T00:18:38;2.75;;;2.55;;
10565;SDS011;5331;48.148;16.326;2022-09-30T00:21:06;2.97;;;2.70;;
10565;SDS011;5331;48.148;16.326;2022-09-30T00:23:35;3.20;;;3.00;;
10565;SDS011;5331;48.148;16.326;2022-09-30T00:26:04;3.35;;;3.13;;
10565;SDS011;5331;48.148;16.326;2022-09-30T00:28:33;4.20;;;3.60;;
10565;SDS011;5331;48.148;16.326;2022-09-30T00:31:01;4.05;;;3.17;;
10565;SDS011;5331;48.148;16.326;2022-09-30T00:33:31;3.05;;;2.85;;
10565;SDS011;5331;48.148;16.326;2022-09-30T00:35:58;3.38;;;3.10;;
10565;SDS011;5331;48.148;16.326;2022-09-30T00:38:26;3.88;;;3.35;;
10565;SDS011;5331;48.148;16.326;2022-09-30T00:40:54;4.30;;;3.90;;
10565;SDS011;5331;48.148;16.326;2022-09-30T00:43:37;4.82;;;3.60;;
10565;SDS011;5331;48.148;16.326;2022-09-30T00:46:06;7.88;;;4.13;;
10565;SDS011;5331;48.148;16.326;2022-09-30T00:48:41;3.83;;;3.53;;
10565;SDS011;5331;48.148;16.326;2022-09-30T00:51:09;4.63;;;4.10;;
10565;SDS011;5331;48.148;16.326;2022-09-30T00:53:38;4.45;;;4.05;;
10565;SDS011;5331;48.148;16.326;2022-09-30T00:56:15;4.78;;;4.38;;
10565;SDS011;5331;48.148;16.326;2022-09-30T00:58:44;4.60;;;4.20;;
10565;SDS011;5331;48.148;16.326;2022-09-30T01:01:14;5.10;;;4.70;;
10565;SDS011;5331;48.148;16.326;2022-09-30T01:03:41;6.18;;;4.15;;
10565;SDS011;5331;48.148;16.326;2022-09-30T01:06:14;5.45;;;4.88;;
10565;SDS011;5331;48.148;16.326;2022-09-30T01:08:41;4.60;;;4.10;;
10565;SDS011;5331;48.148;16.326;2022-09-30T01:11:10;6.55;;;4.43;;
10565;SDS011;5331;48.148;16.326;2022-09-30T01:13:40;5.03;;;4.53;;
10565;SDS011;5331;48.148;16.326;2022-09-30T01:16:15;6.15;;;4.57;;
10565;SDS011;5331;48.148;16.326;2022-09-30T01:18:58;5.63;;;4.70;;
10565;SDS011;5331;48.148;16.326;2022-09-30T01:21:44;5.00;;;4.40;;
10565;SDS011;5331;48.148;16.326;2022-09-30T01:24:32;4.82;;;4.43;;
10565;SDS011;5331;48.148;16.326;2022-09-30T01:30:13;5.40;;;4.13;;
10565;SDS011;5331;48.148;16.326;2022-09-30T01:32:58;4.38;;;3.97;;
10565;SDS011;5331;48.148;16.326;2022-09-30T01:35:55;4.40;;;3.80;;
10565;SDS011;5331;48.148;16.326;2022-09-30T01:38:38;3.88;;;3.58;;
10565;SDS011;5331;48.148;16.326;2022-09-30T01:41:14;4.80;;;3.50;;
10565;SDS011;5331;48.148;16.326;2022-09-30T01:43:53;4.43;;;4.03;;
10565;SDS011;5331;48.148;16.326;2022-09-30T01:46:29;4.82;;;4.00;;
10565;SDS011;5331;48.148;16.326;2022-09-30T01:49:04;3.95;;;3.65;;
10565;SDS011;5331;48.148;16.326;2022-09-30T01:51:36;4.75;;;4.35;;
10565;SDS011;5331;48.148;16.326;2022-09-30T01:54:07;4.55;;;4.15;;
10565;SDS011;5331;48.148;16.326;2022-09-30T01:56:40;4.03;;;3.72;;
10565;SDS011;5331;48.148;16.326;2022-09-30T01:59:10;4.65;;;4.20;;
10565;SDS011;5331;48.148;16.326;2022-09-30T02:01:41;4.20;;;3.80;;
10565;SDS011;5331;48.148;16.326;2022-09-30T02:04:16;3.72;;;3.42;;
10565;SDS011;5331;48.148;16.326;2022-09-30T02:06:46;4.93;;;4.53;;
10565;SDS011;5331;48.148;16.326;2022-09-30T02:09:17;4.68;;;3.88;;
10565;SDS011;5331;48.148;16.326;2022-09-30T02:11:50;4.70;;;4.30;;
10565;SDS011;5331;48.148;16.326;2022-09-30T02:14:22;4.47;;;4.18;;
10565;SDS011;5331;48.148;16.326;2022-09-30T02:16:53;4.30;;;3.90;;
10565;SDS011;5331;48.148;16.326;2022-09-30T02:19:28;4.55;;;4.15;;
10565;SDS011;5331;48.148;16.326;2022-09-30T02:22:00;4.22;;;3.90;;
10565;SDS011;5331;48.148;16.326;2022-09-30T02:24:33;4.70;;;4.30;;
10565;SDS011;5331;48.148;16.326;2022-09-30T02:27:02;4.63;;;4.20;;
10565;SDS011;5331;48.148;16.326;2022-09-30T02:29:38;5.03;;;4.60;;
10565;SDS011;5331;48.148;16.326;2022-09-30T02:32:10;4.05;;;3.65;;
10565;SDS011;5331;48.148;16.326;2022-09-30T02:34:44;4.50;;;4.10;;
10565;SDS011;5331;48.148;16.326;2022-09-30T02:37:16;4.55;;;4.15;;
10565;SDS011;5331;48.148;16.326;2022-09-30T02:39:46;4.82;;;4.43;;
10565;SDS011;5331;48.148;16.326;2022-09-30T02:42:19;4.25;;;3.85;;
10565;SDS011;5331;48.148;16.326;2022-09-30T02:44:53;5.03;;;4.53;;
10565;SDS011;5331;48.148;16.326;2022-09-30T02:47:24;5.45;;;4.57;;
10565;SDS011;5331;48.148;16.326;2022-09-30T02:49:59;5.70;;;4.68;;
10565;SDS011;5331;48.148;16.326;2022-09-30T02:52:33;5.78;;;5.28;;
10565;SDS011;5331;48.148;16.326;2022-09-30T02:55:13;5.65;;;4.90;;
10565;SDS011;5331;48.148;16.326;2022-09-30T02:57:47;5.10;;;4.60;;
10565;SDS011;5331;48.148;16.326;2022-09-30T03:00:21;5.78;;;4.70;;
10565;SDS011;5331;48.148;16.326;2022-09-30T03:02:49;5.53;;;5.03;;
10565;SDS011;5331;48.148;16.326;2022-09-30T03:05:20;5.93;;;5.13;;
10565;SDS011;5331;48.148;16.326;2022-09-30T03:07:48;4.78;;;4.38;;
10565;SDS011;5331;48.148;16.326;2022-09-30T03:10:15;5.07;;;4.63;;
10565;SDS011;5331;48.148;16.326;2022-09-30T03:12:47;5.88;;;5.38;;
10565;SDS011;5331;48.148;16.326;2022-09-30T03:15:37;5.68;;;5.18;;
10565;SDS011;5331;48.148;16.326;2022-09-30T03:21:05;6.97;;;5.68;;
10565;SDS011;5331;48.148;16.326;2022-09-30T03:23:40;7.15;;;5.97;;
10565;SDS011;5331;48.148;16.326;2022-09-30T03:26:21;8.60;;;5.95;;
10565;SDS011;5331;48.148;16.326;2022-09-30T03:28:57;6.75;;;5.80;;
10565;SDS011;5331;48.148;16.326;2022-09-30T03:31:31;6.70;;;6.07;;
10565;SDS011;5331;48.148;16.326;2022-09-30T03:34:08;6.80;;;6.10;;
10565;SDS011;5331;48.148;16.326;2022-09-30T03:36:46;7.75;;;6.57;;
10565;SDS011;5331;48.148;16.326;2022-09-30T03:39:25;7.63;;;6.80;;
10565;SDS011;5331;48.148;16.326;2022-09-30T03:41:59;6.40;;;5.80;;
10565;SDS011;5331;48.148;16.326;2022-09-30T03:44:37;7.70;;;6.72;;
10565;SDS011;5331;48.148;16.326;2022-09-30T03:47:08;8.15;;;6.68;;
10565;SDS011;5331;48.148;16.326;2022-09-30T03:49:38;8.95;;;7.25;;
10565;SDS011;5331;48.148;16.326;2022-09-30T03:52:10;7.60;;;6.90;;
10565;SDS011;5331;48.148;16.326;2022-09-30T03:54:46;8.45;;;7.25;;
10565;SDS011;5331;48.148;16.326;2022-09-30T03:57:15;7.47;;;6.70;;
10565;SDS011;5331;48.148;16.326;2022-09-30T03:59:41;8.50;;;6.85;;
10565;SDS011;5331;48.148;16.326;2022-09-30T04:02:08;7.88;;;7.03;;
10565;SDS011;5331;48.148;16.326;2022-09-30T04:04:37;7.85;;;6.90;;
10565;SDS011;5331;48.148;16.326;2022-09-30T04:07:04;8.85;;;7.30;;
10565;SDS011;5331;48.148;16.326;2022-09-30T04:09:33;8.38;;;7.05;;
10565;SDS011;5331;48.148;16.326;2022-09-30T04:12:00;9.45;;;7.10;;
10565;SDS011;5331;48.148;16.326;2022-09-30T04:14:27;7.45;;;6.53;;
10565;SDS011;5331;48.148;16.326;2022-09-30T04:16:54;8.68;;;7.13;;
10565;SDS011;5331;48.148;16.326;2022-09-30T04:19:20;8.32;;;6.53;;
10565;SDS011;5331;48.148;16.326;2022-09-30T04:21:49;8.18;;;7.38;;
10565;SDS011;5331;48.148;16.326;2022-09-30T04:24:16;8.52;;;7.28;;
10565;SDS011;5331;48.148;16.326;2022-09-30T04:26:45;8.70;;;7.22;;
10565;SDS011;5331;48.148;16.326;2022-09-30T04:29:12;7.68;;;6.97;;
10565;SDS011;5331;48.148;16.326;2022-09-30T04:31:38;8.07;;;7.25;;
10565;SDS011;5331;48.148;16.326;2022-09-30T04:34:05;8.05;;;7.25;;
10565;SDS011;5331;48.148;16.326;2022-09-30T04:36:35;9.05;;;8.15;;
10565;SDS011;5331;48.148;16.326;2022-09-30T04:39:02;8.98;;;8.05;;
10565;SDS011;5331;48.148;16.326;2022-09-30T04:41:30;9.50;;;7.68;;
10565;SDS011;5331;48.148;16.326;2022-09-30T04:43:59;11.43;;;9.02;;
10565;SDS011;5331;48.148;16.326;2022-09-30T04:46:30;9.80;;;8.77;;
10565;SDS011;5331;48.148;16.326;2022-09-30T04:48:57;10.77;;;9.15;;
10565;SDS011;5331;48.148;16.326;2022-09-30T04:51:25;10.73;;;9.38;;
10565;SDS011;5331;48.148;16.326;2022-09-30T04:53:52;10.48;;;9.15;;
10565;SDS011;5331;48.148;16.326;2022-09-30T04:56:19;12.02;;;9.75;;
10565;SDS011;5331;48.148;16.326;2022-09-30T04:58:46;10.15;;;9.13;;
10565;SDS011;5331;48.148;16.326;2022-09-30T05:01:15;11.25;;;9.63;;
10565;SDS011;5331;48.148;16.326;2022-09-30T05:03:43;12.38;;;9.50;;
10565;SDS011;5331;48.148;16.326;2022-09-30T05:06:11;12.05;;;10.02;;
10565;SDS011;5331;48.148;16.326;2022-09-30T05:08:39;12.98;;;9.73;;
10565;SDS011;5331;48.148;16.326;2022-09-30T05:11:07;11.50;;;9.63;;
10565;SDS011;5331;48.148;16.326;2022-09-30T05:13:36;11.25;;;9.55;;
10565;SDS011;5331;48.148;16.326;2022-09-30T05:16:06;10.63;;;9.20;;
10565;SDS011;5331;48.148;16.326;2022-09-30T05:18:35;11.88;;;9.50;;
10565;SDS011;5331;48.148;16.326;2022-09-30T05:21:03;12.32;;;8.98;;
10565;SDS011;5331;48.148;16.326;2022-09-30T05:23:31;13.48;;;10.55;;
10565;SDS011;5331;48.148;16.326;2022-09-30T05:25:58;11.55;;;9.60;;
10565;SDS011;5331;48.148;16.326;2022-09-30T05:28:27;11.68;;;9.68;;
10565;SDS011;5331;48.148;16.326;2022-09-30T05:30:55;13.07;;;10.05;;
10565;SDS011;5331;48.148;16.326;2022-09-30T05:33:24;10.43;;;9.27;;
10565;SDS011;5331;48.148;16.326;2022-09-30T05:35:52;10.18;;;8.65;;
10565;SDS011;5331;48.148;16.326;2022-09-30T05:38:20;9.65;;;7.97;;
10565;SDS011;5331;48.148;16.326;2022-09-30T05:40:47;9.57;;;7.85;;
10565;SDS011;5331;48.148;16.326;2022-09-30T05:43:14;7.93;;;7.13;;
10565;SDS011;5331;48.148;16.326;2022-09-30T05:45:50;8.45;;;6.90;;
10565;SDS011;5331;48.148;16.326;2022-09-30T05:48:17;8.60;;;7.07;;
10565;SDS011;5331;48.148;16.326;2022-09-30T05:50:44;8.10;;;7.28;;
10565;SDS011;5331;48.148;16.326;2022-09-30T05:53:17;7.28;;;6.35;;
10565;SDS011;5331;48.148;16.326;2022-09-30T05:55:44;7.78;;;6.97;;
10565;SDS011;5331;48.148;16.326;2022-09-30T05:58:12;6.85;;;6.20;;
10565;SDS011;5331;48.148;16.326;2022-09-30T06:00:40;6.85;;;6.25;;
10565;SDS011;5331;48.148;16.326;2022-09-30T06:03:07;6.55;;;5.95;;
10565;SDS011;5331;48.148;16.326;2022-09-30T06:05:34;7.30;;;6.55;;
10565;SDS011;5331;48.148;16.326;2022-09-30T06:08:01;7.45;;;6.38;;
10565;SDS011;5331;48.148;16.326;2022-09-30T06:10:33;7.22;;;6.63;;
10565;SDS011;5331;48.148;16.326;2022-09-30T06:13:01;7.85;;;7.07;;
10565;SDS011;5331;48.148;16.326;2022-09-30T06:15:28;7.57;;;6.85;;
10565;SDS011;5331;48.148;16.326;2022-09-30T06:17:55;6.82;;;6.05;;
10565;SDS011;5331;48.148;16.326;2022-09-30T06:20:22;6.97;;;6.38;;
10565;SDS011;5331;48.148;16.326;2022-09-30T06:22:49;7.53;;;6.70;;
10565;SDS011;5331;48.148;16.326;2022-09-30T06:25:17;7.05;;;6.45;;
10565;SDS011;5331;48.148;16.326;2022-09-30T06:27:47;6.68;;;6.03;;
10565;SDS011;5331;48.148;16.326;2022-09-30T06:30:14;7.07;;;6.38;;
10565;SDS011;5331;48.148;16.326;2022-09-30T06:32:41;7.20;;;6.53;;
10565;SDS011;5331;48.148;16.326;2022-09-30T06:35:08;7.13;;;6.53;;
10565;SDS011;5331;48.148;16.326;2022-09-30T06:37:36;6.85;;;6.32;;
10565;SDS011;5331;48.148;16.326;2022-09-30T06:40:03;6.88;;;6.03;;
10565;SDS011;5331;48.148;16.326;2022-09-30T06:42:31;6.88;;;6.20;;
10565;SDS011;5331;48.148;16.326;2022-09-30T06:45:00;7.25;;;6.63;;
10565;SDS011;5331;48.148;16.326;2022-09-30T06:47:27;6.75;;;6.10;;
10565;SDS011;5331;48.148;16.326;2022-09-30T06:49:53;7.47;;;6.78;;
10565;SDS011;5331;48.148;16.326;2022-09-30T06:52:23;6.97;;;6.38;;
10565;SDS011;5331;48.148;16.326;2022-09-30T06:54:51;7.35;;;6.75;;
10565;SDS011;5331;48.148;16.326;2022-09-30T06:57:20;7.07;;;6.47;;
10565;SDS011;5331;48.148;16.326;2022-09-30T06:59:49;7.97;;;7.25;;
10565;SDS011;5331;48.148;16.326;2022-09-30T07:02:17;9.40;;;8.45;;
10565;SDS011;5331;48.148;16.326;2022-09-30T07:04:44;9.95;;;8.93;;
10565;SDS011;5331;48.148;16.326;2022-09-30T07:07:13;11.10;;;9.85;;
10565;SDS011;5331;48.148;16.326;2022-09-30T07:09:40;8.48;;;7.70;;
10565;SDS011;5331;48.148;16.326;2022-09-30T07:12:07;8.20;;;7.40;;
10565;SDS011;5331;48.148;16.326;2022-09-30T07:14:34;8.18;;;7.47;;
10565;SDS011;5331;48.148;16.326;2022-09-30T07:17:01;8.35;;;7.55;;
10565;SDS011;5331;48.148;16.326;2022-09-30T07:19:30;8.50;;;7.70;;
10565;SDS011;5331;48.148;16.326;2022-09-30T07:21:58;8.45;;;7.65;;
10565;SDS011;5331;48.148;16.326;2022-09-30T07:24:46;8.30;;;7.50;;
10565;SDS011;5331;48.148;16.326;2022-09-30T07:27:14;8.68;;;7.88;;
10565;SDS011;5331;48.148;16.326;2022-09-30T07:29:41;9.48;;;8.43;;
10565;SDS011;5331;48.148;16.326;2022-09-30T07:32:08;9.00;;;8.15;;
10565;SDS011;5331;48.148;16.326;2022-09-30T07:34:37;9.20;;;8.30;;
10565;SDS011;5331;48.148;16.326;2022-09-30T07:37:06;8.75;;;7.95;;
10565;SDS011;5331;48.148;16.326;2022-09-30T07:39:34;9.90;;;8.90;;
10565;SDS011;5331;48.148;16.326;2022-09-30T07:42:02;9.88;;;8.80;;
10565;SDS011;5331;48.148;16.326;2022-09-30T07:44:30;9.60;;;8.60;;
10565;SDS011;5331;48.148;16.326;2022-09-30T07:46:57;10.57;;;9.57;;
10565;SDS011;5331;48.148;16.326;2022-09-30T07:49:25;11.00;;;9.90;;
10565;SDS011;5331;48.148;16.326;2022-09-30T07:51:54;10.50;;;9.50;;
10565;SDS011;5331;48.148;16.326;2022-09-30T07:54:23;10.27;;;9.27;;
10565;SDS011;5331;48.148;16.326;2022-09-30T07:56:52;9.80;;;8.85;;
10565;SDS011;5331;48.148;16.326;2022-09-30T07:59:19;10.18;;;9.05;;
10565;SDS011;5331;48.148;16.326;2022-09-30T08:01:47;9.68;;;8.77;;
10565;SDS011;5331;48.148;16.326;2022-09-30T08:04:15;10.10;;;9.13;;
10565;SDS011;5331;48.148;16.326;2022-09-30T08:06:43;10.10;;;9.07;;
10565;SDS011;5331;48.148;16.326;2022-09-30T08:09:13;9.93;;;8.82;;
10565;SDS011;5331;48.148;16.326;2022-09-30T08:11:41;10.45;;;8.98;;
10565;SDS011;5331;48.148;16.326;2022-09-30T08:14:11;9.57;;;8.68;;
10565;SDS011;5331;48.148;16.326;2022-09-30T08:16:39;9.77;;;8.88;;
10565;SDS011;5331;48.148;16.326;2022-09-30T08:19:08;9.43;;;8.50;;
10565;SDS011;5331;48.148;16.326;2022-09-30T08:21:39;10.90;;;9.80;;
10565;SDS011;5331;48.148;16.326;2022-09-30T08:24:05;9.68;;;8.75;;
10565;SDS011;5331;48.148;16.326;2022-09-30T08:26:34;8.82;;;7.93;;
10565;SDS011;5331;48.148;16.326;2022-09-30T08:29:01;9.18;;;8.38;;
10565;SDS011;5331;48.148;16.326;2022-09-30T08:31:27;9.60;;;8.60;;
10565;SDS011;5331;48.148;16.326;2022-09-30T08:33:54;9.00;;;8.18;;
10565;SDS011;5331;48.148;16.326;2022-09-30T08:36:22;9.00;;;8.10;;
10565;SDS011;5331;48.148;16.326;2022-09-30T08:38:50;9.30;;;8.40;;
10565;SDS011;5331;48.148;16.326;2022-09-30T08:41:22;8.63;;;7.65;;
10565;SDS011;5331;48.148;16.326;2022-09-30T08:44:05;8.32;;;7.63;;
10565;SDS011;5331;48.148;16.326;2022-09-30T08:46:45;7.82;;;7.13;;
10565;SDS011;5331;48.148;16.326;2022-09-30T08:49:21;9.73;;;7.60;;
10565;SDS011;5331;48.148;16.326;2022-09-30T08:51:58;8.35;;;7.55;;
10565;SDS011;5331;48.148;16.326;2022-09-30T08:54:28;7.72;;;7.03;;
10565;SDS011;5331;48.148;16.326;2022-09-30T08:56:57;9.48;;;7.70;;
10565;SDS011;5331;48.148;16.326;2022-09-30T08:59:29;8.38;;;7.57;;
10565;SDS011;5331;48.148;16.326;2022-09-30T09:02:00;8.70;;;7.57;;
10565;SDS011;5331;48.148;16.326;2022-09-30T09:04:40;8.48;;;7.68;;
10565;SDS011;5331;48.148;16.326;2022-09-30T09:07:09;8.70;;;7.78;;
10565;SDS011;5331;48.148;16.326;2022-09-30T09:09:50;9.23;;;7.82;;
10565;SDS011;5331;48.148;16.326;2022-09-30T09:12:27;7.68;;;6.95;;
10565;SDS011;5331;48.148;16.326;2022-09-30T09:15:16;8.43;;;7.63;;
10565;SDS011;5331;48.148;16.326;2022-09-30T09:18:01;8.05;;;7.25;;
10565;SDS011;5331;48.148;16.326;2022-09-30T09:20:50;7.50;;;6.85;;
10565;SDS011;5331;48.148;16.326;2022-09-30T09:23:20;8.00;;;7.20;;
10565;SDS011;5331;48.148;16.326;2022-09-30T09:25:47;9.13;;;6.90;;
10565;SDS011;5331;48.148;16.326;2022-09-30T09:28:21;7.10;;;6.50;;
10565;SDS011;5331;48.148;16.326;2022-09-30T09:30:55;7.40;;;6.72;;
10565;SDS011;5331;48.148;16.326;2022-09-30T09:33:25;7.72;;;6.65;;
10565;SDS011;5331;48.148;16.326;2022-09-30T09:35:58;6.70;;;6.13;;
10565;SDS011;5331;48.148;16.326;2022-09-30T09:38:30;6.65;;;5.97;;
10565;SDS011;5331;48.148;16.326;2022-09-30T09:41:09;7.53;;;6.78;;
10565;SDS011;5331;48.148;16.326;2022-09-30T09:43:49;6.97;;;6.30;;
10565;SDS011;5331;48.148;16.326;2022-09-30T09:46:25;6.65;;;6.03;;
10565;SDS011;5331;48.148;16.326;2022-09-30T09:55:04;6.40;;;5.80;;
10565;SDS011;5331;48.148;16.326;2022-09-30T09:57:35;6.07;;;5.53;;
10565;SDS011;5331;48.148;16.326;2022-09-30T10:00:05;6.30;;;5.80;;
10565;SDS011;5331;48.148;16.326;2022-09-30T10:02:59;5.80;;;5.30;;
10565;SDS011;5331;48.148;16.326;2022-09-30T10:05:28;6.28;;;5.05;;
10565;SDS011;5331;48.148;16.326;2022-09-30T10:08:09;5.70;;;5.20;;
10565;SDS011;5331;48.148;16.326;2022-09-30T10:10:41;5.70;;;5.05;;
10565;SDS011;5331;48.148;16.326;2022-09-30T10:13:16;5.93;;;5.40;;
10565;SDS011;5331;48.148;16.326;2022-09-30T10:15:44;5.93;;;5.38;;
10565;SDS011;5331;48.148;16.326;2022-09-30T10:18:16;5.97;;;5.40;;
10565;SDS011;5331;48.148;16.326;2022-09-30T10:20:51;5.80;;;5.30;;
10565;SDS011;5331;48.148;16.326;2022-09-30T10:23:20;5.68;;;5.18;;
10565;SDS011;5331;48.148;16.326;2022-09-30T10:26:02;5.53;;;5.00;;
10565;SDS011;5331;48.148;16.326;2022-09-30T10:28:32;5.53;;;5.03;;
10565;SDS011;5331;48.148;16.326;2022-09-30T10:31:10;5.50;;;5.03;;
10565;SDS011;5331;48.148;16.326;2022-09-30T10:33:45;5.38;;;4.90;;
10565;SDS011;5331;48.148;16.326;2022-09-30T10:36:14;5.05;;;4.60;;
10565;SDS011;5331;48.148;16.326;2022-09-30T10:38:46;4.55;;;4.15;;
10565;SDS011;5331;48.148;16.326;2022-09-30T10:41:20;5.32;;;4.47;;
10565;SDS011;5331;48.148;16.326;2022-09-30T10:43:50;5.40;;;4.95;;
10565;SDS011;5331;48.148;16.326;2022-09-30T10:46:23;4.85;;;4.45;;
10565;SDS011;5331;48.148;16.326;2022-09-30T10:48:54;5.20;;;4.70;;
10565;SDS011;5331;48.148;16.326;2022-09-30T10:51:25;5.57;;;5.07;;
10565;SDS011;5331;48.148;16.326;2022-09-30T10:53:58;4.82;;;4.43;;
10565;SDS011;5331;48.148;16.326;2022-09-30T10:56:32;4.72;;;4.32;;
10565;SDS011;5331;48.148;16.326;2022-09-30T10:59:03;4.60;;;4.20;;
10565;SDS011;5331;48.148;16.326;2022-09-30T11:01:42;4.90;;;4.50;;
10565;SDS011;5331;48.148;16.326;2022-09-30T11:04:16;4.72;;;4.28;;
10565;SDS011;5331;48.148;16.326;2022-09-30T11:06:50;4.97;;;4.57;;
10565;SDS011;5331;48.148;16.326;2022-09-30T11:09:24;5.28;;;4.78;;
10565;SDS011;5331;48.148;16.326;2022-09-30T11:11:59;4.80;;;4.40;;
10565;SDS011;5331;48.148;16.326;2022-09-30T11:14:38;5.00;;;4.50;;
10565;SDS011;5331;48.148;16.326;2022-09-30T11:17:09;4.88;;;4.47;;
10565;SDS011;5331;48.148;16.326;2022-09-30T11:19:54;4.97;;;4.28;;
10565;SDS011;5331;48.148;16.326;2022-09-30T11:22:35;5.32;;;4.82;;
10565;SDS011;5331;48.148;16.326;2022-09-30T11:25:07;4.63;;;4.22;;
10565;SDS011;5331;48.148;16.326;2022-09-30T11:27:46;6.53;;;3.85;;
10565;SDS011;5331;48.148;16.326;2022-09-30T11:30:23;3.45;;;3.25;;
10565;SDS011;5331;48.148;16.326;2022-09-30T11:32:59;3.25;;;3.05;;
10565;SDS011;5331;48.148;16.326;2022-09-30T11:35:50;3.67;;;3.38;;
10565;SDS011;5331;48.148;16.326;2022-09-30T11:38:31;3.35;;;3.05;;
10565;SDS011;5331;48.148;16.326;2022-09-30T11:41:17;3.22;;;3.03;;
10565;SDS011;5331;48.148;16.326;2022-09-30T11:43:55;2.80;;;2.60;;
10565;SDS011;5331;48.148;16.326;2022-09-30T11:46:45;3.03;;;2.83;;
10565;SDS011;5331;48.148;16.326;2022-09-30T11:49:51;3.13;;;2.90;;
10565;SDS011;5331;48.148;16.326;2022-09-30T11:52:48;3.50;;;2.75;;
10565;SDS011;5331;48.148;16.326;2022-09-30T11:55:32;2.70;;;2.50;;
10565;SDS011;5331;48.148;16.326;2022-09-30T11:58:07;3.08;;;2.88;;
10565;SDS011;5331;48.148;16.326;2022-09-30T12:00:37;2.90;;;2.70;;
10565;SDS011;5331;48.148;16.326;2022-09-30T12:03:08;2.65;;;2.50;;
10565;SDS011;5331;48.148;16.326;2022-09-30T12:05:39;2.60;;;2.50;;
10565;SDS011;5331;48.148;16.326;2022-09-30T12:08:11;2.75;;;2.55;;
10565;SDS011;5331;48.148;16.326;2022-09-30T12:10:43;2.85;;;2.60;;
10565;SDS011;5331;48.148;16.326;2022-09-30T12:13:17;2.58;;;2.35;;
10565;SDS011;5331;48.148;16.326;2022-09-30T12:15:48;2.30;;;2.10;;
10565;SDS011;5331;48.148;16.326;2022-09-30T12:18:20;2.10;;;2.00;;
10565;SDS011;5331;48.148;16.326;2022-09-30T12:20:51;2.40;;;2.30;;
10565;SDS011;5331;48.148;16.326;2022-09-30T12:23:25;2.50;;;2.40;;
10565;SDS011;5331;48.148;16.326;2022-09-30T12:25:56;3.13;;;2.20;;
10565;SDS011;5331;48.148;16.326;2022-09-30T12:28:26;2.60;;;2.50;;
10565;SDS011;5331;48.148;16.326;2022-09-30T12:31:20;3.80;;;3.03;;
10565;SDS011;5331;48.148;16.326;2022-09-30T12:34:02;2.60;;;2.50;;
10565;SDS011;5331;48.148;16.326;2022-09-30T12:36:47;2.58;;;2.38;;
10565;SDS011;5331;48.148;16.326;2022-09-30T12:39:35;2.70;;;2.50;;
10565;SDS011;5331;48.148;16.326;2022-09-30T12:45:45;2.47;;;2.28;;
10565;SDS011;5331;48.148;16.326;2022-09-30T12:48:32;2.30;;;2.20;;
10565;SDS011;5331;48.148;16.326;2022-09-30T12:51:03;2.60;;;2.40;;
10565;SDS011;5331;48.148;16.326;2022-09-30T12:53:32;2.67;;;2.33;;
10565;SDS011;5331;48.148;16.326;2022-09-30T12:56:03;2.35;;;2.20;;
10565;SDS011;5331;48.148;16.326;2022-09-30T12:58:34;2.80;;;2.60;;
10565;SDS011;5331;48.148;16.326;2022-09-30T13:01:04;2.70;;;2.58;;
10565;SDS011;5331;48.148;16.326;2022-09-30T13:03:43;2.60;;;2.40;;
10565;SDS011;5331;48.148;16.326;2022-09-30T13:06:18;2.70;;;2.50;;
10565;SDS011;5331;48.148;16.326;2022-09-30T13:08:47;2.63;;;2.40;;
10565;SDS011;5331;48.148;16.326;2022-09-30T13:11:39;2.55;;;2.42;;
10565;SDS011;5331;48.148;16.326;2022-09-30T13:14:13;2.20;;;2.10;;
10565;SDS011;5331;48.148;16.326;2022-09-30T13:16:59;2.47;;;2.10;;
10565;SDS011;5331;48.148;16.326;2022-09-30T13:19:30;2.50;;;2.33;;
10565;SDS011;5331;48.148;16.326;2022-09-30T13:25:15;2.13;;;2.03;;
10565;SDS011;5331;48.148;16.326;2022-09-30T13:27:45;2.22;;;2.13;;
10565;SDS011;5331;48.148;16.326;2022-09-30T13:30:36;2.10;;;2.00;;
10565;SDS011;5331;48.148;16.326;2022-09-30T13:36:15;2.05;;;1.95;;
10565;SDS011;5331;48.148;16.326;2022-09-30T13:39:04;2.75;;;2.55;;
10565;SDS011;5331;48.148;16.326;2022-09-30T13:41:33;2.50;;;2.40;;
10565;SDS011;5331;48.148;16.326;2022-09-30T13:44:05;2.30;;;2.20;;
10565;SDS011;5331;48.148;16.326;2022-09-30T13:46:38;2.45;;;2.28;;
10565;SDS011;5331;48.148;16.326;2022-09-30T13:49:10;3.13;;;2.35;;
10565;SDS011;5331;48.148;16.326;2022-09-30T13:51:40;2.30;;;2.20;;
10565;SDS011;5331;48.148;16.326;2022-09-30T13:54:10;2.20;;;2.00;;
10565;SDS011;5331;48.148;16.326;2022-09-30T13:56:52;4.82;;;2.58;;
10565;SDS011;5331;48.148;16.326;2022-09-30T14:08:24;2.40;;;2.20;;
10565;SDS011;5331;48.148;16.326;2022-09-30T14:11:14;2.20;;;2.10;;
10565;SDS011;5331;48.148;16.326;2022-09-30T14:14:03;2.00;;;1.90;;
10565;SDS011;5331;48.148;16.326;2022-09-30T14:16:46;2.10;;;2.00;;
10565;SDS011;5331;48.148;16.326;2022-09-30T14:19:37;2.25;;;2.15;;
10565;SDS011;5331;48.148;16.326;2022-09-30T14:22:23;2.20;;;2.10;;
10565;SDS011;5331;48.148;16.326;2022-09-30T14:24:54;1.90;;;1.80;;
10565;SDS011;5331;48.148;16.326;2022-09-30T14:27:26;2.88;;;2.22;;
10565;SDS011;5331;48.148;16.326;2022-09-30T14:30:10;4.22;;;2.30;;
10565;SDS011;5331;48.148;16.326;2022-09-30T14:32:42;14.55;;;3.55;;
10565;SDS011;5331;48.148;16.326;2022-09-30T14:35:13;3.58;;;2.20;;
10565;SDS011;5331;48.148;16.326;2022-09-30T14:37:44;10.73;;;3.50;;
10565;SDS011;5331;48.148;16.326;2022-09-30T14:40:17;2.47;;;2.28;;
10565;SDS011;5331;48.148;16.326;2022-09-30T14:42:45;2.20;;;2.00;;
10565;SDS011;5331;48.148;16.326;2022-09-30T14:45:20;2.55;;;2.30;;
10565;SDS011;5331;48.148;16.326;2022-09-30T14:47:53;2.35;;;2.25;;
10565;SDS011;5331;48.148;16.326;2022-09-30T14:50:24;2.10;;;2.00;;
10565;SDS011;5331;48.148;16.326;2022-09-30T14:52:55;2.20;;;2.00;;
10565;SDS011;5331;48.148;16.326;2022-09-30T14:55:26;2.85;;;2.03;;
10565;SDS011;5331;48.148;16.326;2022-09-30T14:57:56;2.20;;;2.10;;
10565;SDS011;5331;48.148;16.326;2022-09-30T15:00:46;10.35;;;3.65;;
10565;SDS011;5331;48.148;16.326;2022-09-30T15:03:17;8.77;;;2.85;;
10565;SDS011;5331;48.148;16.326;2022-09-30T15:05:44;5.88;;;2.83;;
10565;SDS011;5331;48.148;16.326;2022-09-30T15:08:11;9.38;;;3.10;;
10565;SDS011;5331;48.148;16.326;2022-09-30T15:10:45;2.45;;;2.25;;
10565;SDS011;5331;48.148;16.326;2022-09-30T15:13:13;26.95;;;4.97;;
10565;SDS011;5331;48.148;16.326;2022-09-30T15:15:42;31.00;;;6.32;;
10565;SDS011;5331;48.148;16.326;2022-09-30T15:21:11;4.30;;;2.28;;
10565;SDS011;5331;48.148;16.326;2022-09-30T15:23:41;2.05;;;1.90;;
10565;SDS011;5331;48.148;16.326;2022-09-30T15:26:11;5.40;;;2.15;;
10565;SDS011;5331;48.148;16.326;2022-09-30T15:28:39;2.45;;;2.22;;
10565;SDS011;5331;48.148;16.326;2022-09-30T15:31:06;2.47;;;2.20;;
10565;SDS011;5331;48.148;16.326;2022-09-30T15:33:46;2.53;;;2.20;;
10565;SDS011;5331;48.148;16.326;2022-09-30T15:36:13;2.20;;;2.10;;
10565;SDS011;5331;48.148;16.326;2022-09-30T15:38:45;2.30;;;2.20;;
10565;SDS011;5331;48.148;16.326;2022-09-30T15:41:13;2.72;;;2.20;;
10565;SDS011;5331;48.148;16.326;2022-09-30T15:43:41;2.20;;;2.10;;
10565;SDS011;5331;48.148;16.326;2022-09-30T15:46:15;2.00;;;1.90;;
10565;SDS011;5331;48.148;16.326;2022-09-30T15:48:51;2.00;;;1.90;;
10565;SDS011;5331;48.148;16.326;2022-09-30T15:51:30;2.00;;;1.90;;